Time;durP1;ratioP1;P1;durP2;ratioP2;P2;SDS_P1;SDS_P2;PMS_P1;PMS_P2;Temp;Humidity;BMP_temperature;BMP_pressure;BME280_temperature;BME280_humidity;BME280_pressure;Samples;Min_cycle;Max_cycle;Signal;HPM_P1;HPM_P2
2021/12/02 00:02:07;;;;;;;5.13;1.50;;;5.80;99.90;;;;;;4998180;28;20197;-87
2021/12/02 00:17:54;;;;;;;1.80;1.00;;;5.70;99.90;;;;;;5000065;28;20217;-87
2021/12/02 00:23:35;;;;;;;5.07;0.97;;;5.70;99.90;;;;;;5000200;28;20209;-87
2021/12/02 00:26:12;;;;;;;3.37;0.97;;;5.70;99.90;;;;;;4999716;28;20180;-88
2021/12/02 00:29:15;;;;;;;4.37;1.10;;;5.70;99.90;;;;;;5000057;28;20204;-88
2021/12/02 00:32:08;;;;;;;8.37;1.33;;;5.70;99.90;;;;;;5000251;28;20220;-88
2021/12/02 00:34:55;;;;;;;4.20;1.37;;;5.80;99.90;;;;;;5001042;28;20209;-85
2021/12/02 00:38:21;;;;;;;6.17;1.13;;;5.80;99.90;;;;;;4998696;28;20224;-83
2021/12/02 00:41:27;;;;;;;7.03;1.13;;;5.70;99.90;;;;;;5001449;28;20390;-87
2021/12/02 00:54:37;;;;;;;7.13;1.70;;;5.60;99.90;;;;;;5000770;28;20205;-88
2021/12/02 00:57:35;;;;;;;4.33;1.23;;;5.60;99.90;;;;;;5002084;28;20183;-87
2021/12/02 01:03:31;;;;;;;6.17;1.17;;;5.40;99.90;;;;;;5040907;28;20433;-85
2021/12/02 01:12:39;;;;;;;9.57;1.60;;;5.60;99.90;;;;;;5040124;28;20211;-87
2021/12/02 01:15:30;;;;;;;11.17;1.50;;;5.50;99.90;;;;;;5039599;28;20215;-86
2021/12/02 01:18:31;;;;;;;7.70;1.50;;;5.60;99.90;;;;;;5040177;28;20216;-88
2021/12/02 01:21:08;;;;;;;5.43;1.70;;;5.50;99.90;;;;;;5036485;28;20431;-87
2021/12/02 01:23:51;;;;;;;5.43;1.37;;;5.60;99.90;;;;;;5037914;28;20215;-87
2021/12/02 01:26:23;;;;;;;6.63;1.40;;;5.50;99.90;;;;;;5038323;28;20199;-86
2021/12/02 01:31:59;;;;;;;4.80;1.10;;;5.40;99.90;;;;;;5036879;28;20204;-87
2021/12/02 01:34:36;;;;;;;3.33;1.20;;;5.40;99.90;;;;;;5037365;28;20188;-87
2021/12/02 01:37:15;;;;;;;6.73;1.20;;;5.40;99.90;;;;;;5036539;28;20203;-87
2021/12/02 01:39:53;;;;;;;5.80;1.47;;;5.40;99.90;;;;;;5037457;28;20204;-87
2021/12/02 01:42:26;;;;;;;6.60;1.53;;;5.40;99.90;;;;;;5038038;28;20472;-88
2021/12/02 01:45:40;;;;;;;8.53;1.20;;;5.40;99.90;;;;;;5037652;28;20215;-88
2021/12/02 01:48:41;;;;;;;3.77;1.20;;;5.40;99.90;;;;;;5038504;28;20215;-88
2021/12/02 01:51:55;;;;;;;6.23;1.17;;;5.40;99.90;;;;;;5039738;28;20191;-87
2021/12/02 01:54:32;;;;;;;2.87;1.20;;;5.40;99.90;;;;;;5039321;28;20171;-87
2021/12/02 01:57:44;;;;;;;6.67;1.40;;;5.40;99.90;;;;;;5039589;28;20204;-87
2021/12/02 02:00:21;;;;;;;6.90;1.40;;;5.20;99.90;;;;;;5039104;28;20208;-87
2021/12/02 02:03:13;;;;;;;7.70;1.37;;;5.20;99.90;;;;;;5039494;28;20258;-87
2021/12/02 02:08:53;;;;;;;7.60;2.07;;;5.10;99.90;;;;;;5037943;28;20212;-87
2021/12/02 02:14:18;;;;;;;4.50;1.57;;;5.10;99.90;;;;;;5037753;28;20208;-87
2021/12/02 02:16:54;;;;;;;8.27;1.47;;;5.10;99.90;;;;;;5036761;28;20204;-87
2021/12/02 02:19:36;;;;;;;7.70;2.23;;;5.00;99.90;;;;;;5038025;28;20238;-88
2021/12/02 02:22:27;;;;;;;6.40;1.27;;;5.20;99.90;;;;;;5039202;28;20432;-88
2021/12/02 02:25:00;;;;;;;4.30;1.08;;;5.10;99.90;;;;;;5038099;28;20392;-87
2021/12/02 02:27:34;;;;;;;5.60;1.03;;;5.10;99.90;;;;;;5037574;28;20220;-88
2021/12/02 02:30:11;;;;;;;6.80;0.97;;;5.10;99.90;;;;;;5037143;28;20196;-86
2021/12/02 02:32:47;;;;;;;5.47;1.00;;;5.00;99.90;;;;;;5020530;28;20207;-87
2021/12/02 02:35:19;;;;;;;2.13;1.10;;;4.80;99.90;;;;;;5036297;28;20184;-87
2021/12/02 02:37:59;;;;;;;1.30;0.70;;;4.80;99.90;;;;;;5036765;28;20481;-87
2021/12/02 02:40:31;;;;;;;7.10;1.33;;;4.80;99.90;;;;;;5035312;28;20501;-86
2021/12/02 02:43:06;;;;;;;6.70;1.30;;;4.70;99.90;;;;;;5035365;28;20429;-87
2021/12/02 02:45:36;;;;;;;7.10;1.67;;;4.80;99.90;;;;;;5034907;28;20441;-86
2021/12/02 02:48:09;;;;;;;5.68;1.60;;;4.70;99.90;;;;;;5035745;28;20428;-86
2021/12/02 02:50:45;;;;;;;7.90;1.53;;;4.70;99.90;;;;;;5036144;28;20192;-87
2021/12/02 02:53:28;;;;;;;9.23;1.17;;;4.90;99.90;;;;;;5035762;28;20207;-86
2021/12/02 02:56:07;;;;;;;3.80;1.07;;;4.80;99.90;;;;;;5036051;28;20425;-86
2021/12/02 02:59:20;;;;;;;4.37;1.20;;;4.80;99.90;;;;;;5035012;28;20484;-87
2021/12/02 03:02:14;;;;;;;5.67;1.17;;;4.80;99.90;;;;;;5036384;28;20283;-87
2021/12/02 03:07:35;;;;;;;4.43;1.10;;;4.80;99.90;;;;;;5037251;28;20444;-88
2021/12/02 03:23:55;;;;;;;2.90;0.97;;;4.90;99.90;;;;;;5038302;28;20222;-87
2021/12/02 03:26:33;;;;;;;10.33;1.40;;;4.80;99.90;;;;;;5037879;28;20453;-88
2021/12/02 03:29:26;;;;;;;4.83;1.40;;;4.80;99.90;;;;;;5038553;28;20206;-87
2021/12/02 03:31:57;;;;;;;7.95;1.60;;;4.90;99.90;;;;;;5035139;28;20432;-85
2021/12/02 03:34:37;;;;;;;3.33;1.10;;;4.90;99.90;;;;;;5033472;28;20219;-86
2021/12/02 03:37:16;;;;;;;9.63;1.57;;;4.70;99.90;;;;;;5032726;28;20203;-85
2021/12/02 03:39:52;;;;;;;6.03;1.00;;;4.70;99.90;;;;;;5034807;28;20496;-87
2021/12/02 03:42:26;;;;;;;5.53;0.90;;;4.60;99.90;;;;;;5034623;28;20437;-86
2021/12/02 03:48:01;;;;;;;4.50;1.20;;;4.50;99.90;;;;;;5032955;28;20440;-86
2021/12/02 03:50:34;;;;;;;5.40;0.80;;;4.50;99.90;;;;;;5034836;28;20476;-87
2021/12/02 03:53:27;;;;;;;5.07;1.00;;;4.40;99.90;;;;;;5035409;28;20505;-86
2021/12/02 03:56:40;;;;;;;2.27;0.60;;;4.40;99.90;;;;;;5034678;28;20449;-86
2021/12/02 03:59:19;;;;;;;6.03;0.60;;;4.20;99.90;;;;;;5034694;28;20481;-85
2021/12/02 04:02:00;;;;;;;3.53;0.90;;;4.20;99.90;;;;;;5034401;28;20425;-87
2021/12/02 04:04:41;;;;;;;1.10;0.93;;;4.10;99.90;;;;;;5034416;28;20468;-86
2021/12/02 04:07:26;;;;;;;1.93;0.63;;;4.10;99.90;;;;;;5033850;28;20484;-87
2021/12/02 04:10:00;;;;;;;0.43;0.40;;;4.10;99.90;;;;;;5034305;28;20512;-87
2021/12/02 04:12:33;;;;;;;2.43;0.60;;;4.10;99.90;;;;;;5033435;28;20516;-86
2021/12/02 04:15:13;;;;;;;7.50;1.00;;;4.10;99.90;;;;;;5034582;28;20505;-86
2021/12/02 04:17:51;;;;;;;4.82;1.08;;;4.00;99.90;;;;;;5033209;28;20428;-87
2021/12/02 04:20:36;;;;;;;2.73;0.90;;;4.10;99.90;;;;;;5034378;28;20223;-86
2021/12/02 04:23:07;;;;;;;1.50;0.70;;;4.00;99.90;;;;;;5034657;28;20441;-86
2021/12/02 04:25:36;;;;;;;3.43;0.73;;;4.10;99.90;;;;;;5034276;28;20503;-86
2021/12/02 04:28:04;;;;;;;2.03;1.07;;;4.10;99.90;;;;;;5034499;28;20465;-86
2021/12/02 04:30:36;;;;;;;1.80;1.00;;;4.10;99.90;;;;;;5034517;28;20453;-87
2021/12/02 04:33:12;;;;;;;5.30;1.60;;;4.00;99.90;;;;;;5034408;28;20461;-86
2021/12/02 04:35:45;;;;;;;4.60;1.70;;;4.00;99.90;;;;;;5033663;28;20495;-84
2021/12/02 04:41:04;;;;;;;5.47;2.30;;;4.10;99.90;;;;;;5034022;28;20449;-87
2021/12/02 04:43:41;;;;;;;10.80;3.03;;;4.20;99.90;;;;;;5045981;28;20451;-87
2021/12/02 04:46:40;;;;;;;13.27;3.77;;;4.30;99.90;;;;;;5054086;28;20511;-87
2021/12/02 04:49:20;;;;;;;10.43;4.23;;;4.40;99.90;;;;;;5054999;28;20488;-87
2021/12/02 04:51:54;;;;;;;16.17;4.30;;;4.50;99.90;;;;;;5056878;28;20432;-85
2021/12/02 04:54:25;;;;;;;14.00;4.87;;;4.40;99.90;;;;;;5057305;28;20487;-85
2021/12/02 04:56:54;;;;;;;12.67;3.23;;;4.20;99.90;;;;;;5057526;28;20851;-87
2021/12/02 04:59:33;;;;;;;6.07;2.15;;;4.20;99.90;;;;;;5057639;28;20446;-84
2021/12/02 05:02:25;;;;;;;7.63;1.93;;;4.10;99.90;;;;;;5059571;28;20250;-86
2021/12/02 05:04:58;;;;;;;5.03;1.20;;;4.10;99.90;;;;;;5058257;28;20440;-85
2021/12/02 05:07:32;;;;;;;7.10;1.30;;;4.10;99.90;;;;;;5058243;28;20458;-85
2021/12/02 05:10:13;;;;;;;9.60;1.60;;;4.00;99.90;;;;;;5057866;28;20442;-85
2021/12/02 05:12:46;;;;;;;7.80;1.93;;;3.90;99.90;;;;;;5059075;28;20451;-85
2021/12/02 05:15:44;;;;;;;8.67;2.07;;;3.80;99.90;;;;;;5058299;28;20444;-84
2021/12/02 05:18:23;;;;;;;8.43;2.30;;;3.70;99.90;;;;;;5057664;28;20420;-85
2021/12/02 05:23:51;;;;;;;10.00;2.72;;;3.70;99.90;;;;;;5053679;28;20431;-84
2021/12/02 05:26:21;;;;;;;13.13;2.80;;;3.80;99.90;;;;;;5058385;28;20200;-84
2021/12/02 05:28:55;;;;;;;10.07;2.27;;;4.00;99.90;;;;;;5058269;28;20448;-84
2021/12/02 05:31:31;;;;;;;10.17;2.63;;;3.70;99.90;;;;;;5057806;28;20479;-84
2021/12/02 05:33:59;;;;;;;8.33;2.93;;;3.70;99.90;;;;;;5057606;28;20516;-84
2021/12/02 05:36:44;;;;;;;11.10;2.83;;;3.70;99.90;;;;;;5057609;28;20540;-85
2021/12/02 05:39:21;;;;;;;7.47;2.80;;;3.80;99.90;;;;;;5056503;28;20480;-84
2021/12/02 05:41:55;;;;;;;9.03;2.60;;;3.70;99.90;;;;;;5056696;28;20532;-84
2021/12/02 05:44:29;;;;;;;12.15;4.30;;;3.80;99.90;;;;;;5057229;28;20422;-83
2021/12/02 05:47:05;;;;;;;17.53;4.50;;;3.80;99.90;;;;;;5056354;28;20257;-83
2021/12/02 05:49:44;;;;;;;20.23;4.00;;;3.90;99.90;;;;;;5056851;28;20472;-84
2021/12/02 05:52:23;;;;;;;10.13;3.90;;;3.80;99.90;;;;;;5057129;28;20429;-84
2021/12/02 05:54:58;;;;;;;16.90;4.03;;;3.80;99.90;;;;;;5057417;28;20475;-85
2021/12/02 05:57:31;;;;;;;9.73;4.17;;;3.90;99.90;;;;;;5057218;28;20456;-84
2021/12/02 06:00:11;;;;;;;20.13;4.57;;;4.00;99.90;;;;;;5055711;28;20484;-84
2021/12/02 06:02:38;;;;;;;10.70;3.07;;;3.80;99.90;;;;;;5039890;28;20459;-83
2021/12/02 06:05:08;;;;;;;2.47;1.17;;;3.70;99.90;;;;;;5057151;28;20447;-84
2021/12/02 06:07:53;;;;;;;6.23;1.93;;;3.50;99.90;;;;;;5057283;28;20457;-85
2021/12/02 06:10:53;;;;;;;4.57;0.97;;;3.30;99.90;;;;;;5057868;28;20432;-83
2021/12/02 06:13:45;;;;;;;6.33;1.30;;;3.10;99.90;;;;;;5057299;28;20543;-83
2021/12/02 06:16:20;;;;;;;8.97;1.70;;;3.00;99.90;;;;;;5053185;28;20526;-82
2021/12/02 06:18:52;;;;;;;10.13;1.27;;;3.00;99.90;;;;;;5055285;28;20467;-85
2021/12/02 06:22:13;;;;;;;7.50;1.77;;;2.90;99.90;;;;;;5054566;28;20460;-82
2021/12/02 06:25:05;;;;;;;4.67;1.40;;;3.00;99.90;;;;;;5055298;28;20453;-86
2021/12/02 06:27:35;;;;;;;3.88;1.10;;;3.00;99.90;;;;;;5054727;28;20439;-83
2021/12/02 06:30:14;;;;;;;7.90;1.40;;;3.00;99.90;;;;;;5054538;28;20207;-85
2021/12/02 06:32:50;;;;;;;4.90;1.27;;;3.10;99.90;;;;;;5054592;28;20460;-85
2021/12/02 06:35:23;;;;;;;6.27;1.17;;;3.10;99.90;;;;;;5054791;28;20443;-85
2021/12/02 06:37:56;;;;;;;6.30;1.17;;;3.10;99.90;;;;;;5055479;28;20459;-85
2021/12/02 06:40:34;;;;;;;7.63;1.17;;;3.10;99.90;;;;;;5054764;28;20484;-86
2021/12/02 06:43:05;;;;;;;5.70;1.00;;;3.10;99.90;;;;;;5055617;28;20440;-86
2021/12/02 06:45:34;;;;;;;3.83;1.50;;;3.20;99.90;;;;;;5055135;28;20457;-82
2021/12/02 06:48:01;;;;;;;4.07;1.03;;;3.30;99.90;;;;;;5054692;28;20931;-84
2021/12/02 06:50:36;;;;;;;6.37;1.50;;;3.30;99.90;;;;;;5054674;28;20444;-82
2021/12/02 06:53:17;;;;;;;4.07;1.80;;;3.40;99.90;;;;;;5054423;28;20424;-84
2021/12/02 06:56:25;;;;;;;4.00;1.00;;;3.30;99.90;;;;;;5051300;28;20436;-83
2021/12/02 06:59:01;;;;;;;1.83;0.83;;;3.20;99.90;;;;;;5053648;28;20500;-83
2021/12/02 07:01:31;;;;;;;2.10;0.70;;;3.00;99.90;;;;;;5056215;28;20459;-84
2021/12/02 07:04:12;;;;;;;1.50;0.97;;;2.80;99.90;;;;;;5056022;28;20508;-85
2021/12/02 07:06:46;;;;;;;6.82;1.33;;;2.50;99.90;;;;;;5056468;28;20419;-84
2021/12/02 07:09:14;;;;;;;6.00;1.80;;;2.20;99.90;;;;;;5055348;28;20211;-82
2021/12/02 07:14:51;;;;;;;6.13;2.07;;;2.00;99.90;;;;;;5048993;28;20458;-81
2021/12/02 07:17:23;;;;;;;9.90;3.30;;;2.00;99.90;;;;;;5053425;28;20452;-83
2021/12/02 07:19:52;;;;;;;9.87;3.63;;;1.80;99.90;;;;;;5036655;28;20480;-83
2021/12/02 07:22:27;;;;;;;15.93;4.40;;;1.80;99.90;;;;;;5055369;28;20424;-83
2021/12/02 07:25:29;;;;;;;8.73;3.30;;;1.90;99.90;;;;;;5055852;28;20455;-84
2021/12/02 07:30:58;;;;;;;11.73;3.07;;;2.00;99.90;;;;;;5054244;28;20437;-83
2021/12/02 07:33:48;;;;;;;6.27;2.17;;;1.90;99.90;;;;;;5149026;27;20625;-84
2021/12/02 07:36:19;;;;;;;6.27;2.70;;;1.80;99.90;;;;;;5141270;28;20441;-84
2021/12/02 07:38:48;;;;;;;5.27;2.23;;;1.80;99.90;;;;;;5128928;28;20436;-85
2021/12/02 07:41:19;;;;;;;7.63;2.33;;;1.90;99.90;;;;;;5126660;28;20502;-87
2021/12/02 07:43:52;;;;;;;2.20;1.50;;;2.00;99.90;;;;;;5138385;28;20443;-87
2021/12/02 07:46:20;;;;;;;4.53;2.40;;;2.10;99.90;;;;;;5149513;27;20476;-85
2021/12/02 07:48:55;;;;;;;4.70;1.77;;;2.20;99.90;;;;;;5150588;28;20459;-85
2021/12/02 07:51:30;;;;;;;5.17;1.90;;;2.20;99.90;;;;;;5143727;28;20432;-86
2021/12/02 07:53:59;;;;;;;9.23;3.23;;;2.20;99.90;;;;;;5141558;28;20457;-85
2021/12/02 07:56:30;;;;;;;8.00;3.23;;;2.30;99.90;;;;;;5146934;27;20477;-86
2021/12/02 07:59:01;;;;;;;9.93;3.53;;;2.30;99.90;;;;;;5150583;28;20415;-86
2021/12/02 08:01:28;;;;;;;13.23;4.47;;;2.30;99.90;;;;;;5152443;28;20440;-88
2021/12/02 08:03:59;;;;;;;20.83;6.33;;;2.40;99.90;;;;;;5147939;28;20468;-87
2021/12/02 08:06:35;;;;;;;21.23;7.63;;;2.50;99.90;;;;;;5148817;28;20475;-87
2021/12/02 08:09:06;;;;;;;27.93;8.10;;;2.60;99.90;;;;;;5148298;27;20470;-87
2021/12/02 08:11:34;;;;;;;28.07;8.47;;;2.60;99.90;;;;;;5148670;28;20448;-87
2021/12/02 08:14:08;;;;;;;22.67;8.23;;;2.60;99.90;;;;;;5147582;28;20448;-87
2021/12/02 08:16:47;;;;;;;30.50;9.17;;;2.50;99.90;;;;;;5148391;28;20465;-87
2021/12/02 08:19:24;;;;;;;28.50;8.50;;;2.70;99.90;;;;;;5148916;27;20468;-87
2021/12/02 08:21:58;;;;;;;27.83;9.70;;;2.70;99.90;;;;;;5148147;28;20454;-87
2021/12/02 08:24:26;;;;;;;29.77;7.27;;;2.70;99.90;;;;;;5148434;27;20439;-87
2021/12/02 08:27:02;;;;;;;27.60;7.40;;;2.70;99.90;;;;;;5147205;28;20449;-87
2021/12/02 08:29:37;;;;;;;16.13;5.07;;;2.80;99.90;;;;;;5147029;27;20459;-87
2021/12/02 08:32:06;;;;;;;15.97;3.23;;;2.90;99.90;;;;;;5146607;27;20463;-86
2021/12/02 08:34:39;;;;;;;12.37;2.27;;;2.90;99.90;;;;;;5146530;27;20440;-87
2021/12/02 08:37:09;;;;;;;5.83;1.50;;;2.90;99.90;;;;;;5146170;27;20466;-86
2021/12/02 08:39:54;;;;;;;5.33;1.70;;;2.90;99.90;;;;;;5150427;27;20460;-87
2021/12/02 08:42:23;;;;;;;5.30;1.57;;;3.00;99.90;;;;;;5147498;27;20497;-88
2021/12/02 08:44:57;;;;;;;3.93;1.17;;;3.00;99.90;;;;;;5130265;28;20445;-87
2021/12/02 08:47:28;;;;;;;7.17;1.33;;;2.90;99.90;;;;;;5118815;28;20465;-87
2021/12/02 08:50:08;;;;;;;3.53;1.00;;;3.00;99.90;;;;;;5103287;28;20508;-88
2021/12/02 08:52:43;;;;;;;12.93;1.30;;;3.00;99.90;;;;;;5119870;28;20480;-86
2021/12/02 08:55:14;;;;;;;5.30;1.50;;;3.00;99.90;;;;;;5119834;28;20476;-86
2021/12/02 08:57:42;;;;;;;4.20;1.30;;;3.00;99.90;;;;;;5132011;28;20473;-86
2021/12/02 09:00:19;;;;;;;7.97;1.70;;;3.20;99.90;;;;;;5132581;28;20549;-87
2021/12/02 09:02:48;;;;;;;8.10;1.53;;;3.20;99.90;;;;;;5132655;28;20444;-86
2021/12/02 09:05:24;;;;;;;5.87;1.20;;;3.30;99.90;;;;;;5131722;28;20475;-86
2021/12/02 09:11:14;;;;;;;6.00;1.83;;;3.40;99.90;;;;;;5140391;27;20445;-87
2021/12/02 09:13:46;;;;;;;5.80;1.57;;;3.40;99.90;;;;;;5139272;28;20477;-87
2021/12/02 09:16:33;;;;;;;5.93;1.50;;;3.50;99.90;;;;;;5138870;28;20425;-87
2021/12/02 09:19:11;;;;;;;10.33;1.77;;;3.70;99.90;;;;;;5139577;28;20449;-87
2021/12/02 09:22:07;;;;;;;7.07;1.97;;;3.70;99.90;;;;;;5137112;28;20424;-86
2021/12/02 09:27:32;;;;;;;9.98;2.22;;;3.80;99.90;;;;;;5137808;28;20368;-85
2021/12/02 09:30:27;;;;;;;12.90;2.47;;;3.90;99.90;;;;;;5138838;28;20204;-86
2021/12/02 09:32:57;;;;;;;12.47;2.50;;;4.00;99.90;;;;;;5135980;28;20483;-86
2021/12/02 09:35:27;;;;;;;3.57;1.63;;;4.10;99.90;;;;;;5121762;28;20451;-85
2021/12/02 09:38:39;;;;;;;7.07;2.30;;;4.30;99.90;;;;;;5139609;28;20433;-86
2021/12/02 09:41:07;;;;;;;6.03;1.63;;;4.20;99.90;;;;;;5137212;27;20444;-86
2021/12/02 09:43:52;;;;;;;4.93;2.00;;;4.10;99.90;;;;;;5149225;22;20508;-87
2021/12/02 09:46:21;;;;;;;11.77;2.97;;;4.20;99.90;;;;;;5127334;22;20450;-87
2021/12/02 09:48:52;;;;;;;9.10;2.63;;;4.30;99.90;;;;;;5074353;28;20502;-85
2021/12/02 09:51:28;;;;;;;11.25;2.92;;;4.40;99.90;;;;;;5072711;28;20438;-83
2021/12/02 09:55:02;;;;;;;9.20;2.27;;;4.40;99.90;;;;;;5070702;28;20229;-84
2021/12/02 09:57:38;;;;;;;7.43;1.93;;;4.40;99.90;;;;;;5071932;28;20489;-85
2021/12/02 10:00:15;;;;;;;4.37;2.10;;;4.30;99.90;;;;;;5070026;28;20489;-85
2021/12/02 10:02:53;;;;;;;9.17;2.43;;;3.90;99.90;;;;;;5073500;28;20435;-87
2021/12/02 10:05:39;;;;;;;4.97;1.60;;;3.50;99.90;;;;;;5075069;28;20447;-87
2021/12/02 10:08:10;;;;;;;5.43;1.67;;;3.20;99.90;;;;;;5066601;28;20449;-86
2021/12/02 10:10:53;;;;;;;6.10;2.10;;;3.00;99.90;;;;;;5058568;28;20451;-85
2021/12/02 10:13:27;;;;;;;8.00;2.30;;;3.00;99.90;;;;;;5056735;28;20514;-83
2021/12/02 10:16:20;;;;;;;8.73;2.50;;;2.90;99.90;;;;;;5068194;28;20469;-84
2021/12/02 10:19:07;;;;;;;8.97;3.40;;;2.90;99.90;;;;;;5068531;28;20454;-81
2021/12/02 10:21:47;;;;;;;9.63;3.37;;;2.80;99.90;;;;;;5069815;28;20432;-84
2021/12/02 10:24:30;;;;;;;7.37;3.00;;;2.70;99.90;;;;;;5072257;28;20432;-85
2021/12/02 10:27:07;;;;;;;12.67;3.87;;;2.50;99.90;;;;;;5076580;28;20427;-85
2021/12/02 10:30:03;;;;;;;10.73;3.77;;;2.60;99.90;;;;;;5077209;28;20459;-84
2021/12/02 10:33:02;;;;;;;11.30;3.70;;;2.70;99.90;;;;;;5076825;28;20479;-83
2021/12/02 10:35:41;;;;;;;11.65;3.95;;;3.00;99.90;;;;;;5065397;28;20343;-86
2021/12/02 10:38:40;;;;;;;7.83;3.83;;;3.20;99.90;;;;;;5063846;28;20208;-87
2021/12/02 10:41:09;;;;;;;11.20;4.53;;;3.20;99.90;;;;;;5064261;28;20810;-86
2021/12/02 10:43:36;;;;;;;11.63;3.90;;;3.30;99.90;;;;;;5063624;28;20450;-86
2021/12/02 10:46:17;;;;;;;7.30;4.00;;;3.40;99.90;;;;;;5063530;28;20471;-86
2021/12/02 10:48:47;;;;;;;10.10;4.73;;;3.60;99.90;;;;;;5062925;28;20465;-86
2021/12/02 10:51:34;;;;;;;11.80;4.23;;;3.50;99.90;;;;;;5063469;28;20447;-86
2021/12/02 10:54:07;;;;;;;15.07;5.23;;;3.50;99.90;;;;;;5061749;28;20486;-86
2021/12/02 10:56:37;;;;;;;11.57;5.13;;;3.60;99.90;;;;;;5063028;28;20463;-86
2021/12/02 10:59:24;;;;;;;7.30;4.30;;;3.60;99.90;;;;;;5063124;28;20472;-85
2021/12/02 11:01:53;;;;;;;7.47;4.23;;;3.60;99.90;;;;;;5063028;28;20444;-86
2021/12/02 11:04:20;;;;;;;11.70;5.20;;;3.80;99.90;;;;;;5062784;28;20454;-87
2021/12/02 11:06:50;;;;;;;14.93;4.60;;;3.80;99.90;;;;;;5063316;28;20474;-87
2021/12/02 11:09:30;;;;;;;11.13;4.47;;;3.80;99.90;;;;;;5064479;28;20456;-86
2021/12/02 11:12:19;;;;;;;9.00;3.10;;;3.70;99.90;;;;;;5064700;28;20474;-86
2021/12/02 11:15:02;;;;;;;6.10;2.50;;;3.60;99.90;;;;;;5064688;28;20435;-86
2021/12/02 11:17:33;;;;;;;8.23;2.60;;;3.60;99.90;;;;;;5064636;28;20459;-86
2021/12/02 11:20:02;;;;;;;11.43;2.17;;;3.70;99.90;;;;;;5065123;28;20547;-86
2021/12/02 11:22:30;;;;;;;9.30;2.30;;;3.80;99.90;;;;;;5064405;28;20495;-87
2021/12/02 11:25:00;;;;;;;11.97;2.50;;;3.90;99.90;;;;;;5065205;28;20453;-86
2021/12/02 11:27:31;;;;;;;5.63;2.47;;;4.10;99.90;;;;;;5063820;28;20442;-86
2021/12/02 11:30:04;;;;;;;10.50;2.50;;;4.30;99.90;;;;;;5061788;28;20452;-86
2021/12/02 11:32:57;;;;;;;11.63;6.27;;;4.50;99.90;;;;;;5061924;28;20943;-86
2021/12/02 11:35:33;;;;;;;13.23;6.43;;;4.10;99.90;;;;;;5060613;28;20498;-86
2021/12/02 11:38:04;;;;;;;10.57;5.57;;;3.70;99.90;;;;;;5065852;28;20477;-87
2021/12/02 11:40:35;;;;;;;7.70;4.00;;;3.30;99.90;;;;;;5065605;28;20455;-86
2021/12/02 11:43:04;;;;;;;6.00;3.40;;;3.00;99.90;;;;;;5065548;28;20459;-85
2021/12/02 11:45:42;;;;;;;4.68;2.83;;;3.00;99.90;;;;;;5065578;28;20442;-85
2021/12/02 11:48:14;;;;;;;4.07;2.00;;;2.90;99.90;;;;;;5066784;28;20224;-85
2021/12/02 11:50:42;;;;;;;5.23;1.87;;;2.90;99.90;;;;;;5067507;28;20458;-85
2021/12/02 11:53:14;;;;;;;1.93;1.67;;;3.10;99.90;;;;;;5068418;28;20487;-85
2021/12/02 11:55:47;;;;;;;3.90;1.60;;;3.00;99.90;;;;;;5068524;28;20527;-88
2021/12/02 11:58:14;;;;;;;2.00;1.30;;;3.20;99.90;;;;;;5060690;28;20488;-83
2021/12/02 12:00:44;;;;;;;5.03;1.90;;;3.20;99.90;;;;;;5057777;28;20474;-84
2021/12/02 12:03:35;;;;;;;3.13;1.23;;;3.20;99.90;;;;;;5067427;28;20522;-84
2021/12/02 12:06:08;;;;;;;2.10;1.23;;;3.20;99.90;;;;;;5068052;28;20504;-83
2021/12/02 12:08:40;;;;;;;4.63;2.17;;;3.20;99.90;;;;;;5067156;28;20538;-82
2021/12/02 12:14:23;;;;;;;2.67;1.40;;;3.20;99.90;;;;;;5140250;27;20573;-82
2021/12/02 12:16:52;;;;;;;2.27;1.10;;;3.30;99.90;;;;;;5107349;28;20448;-83
2021/12/02 12:19:33;;;;;;;2.90;1.20;;;3.40;99.90;;;;;;5107708;28;20452;-84
2021/12/02 12:22:04;;;;;;;5.93;1.23;;;3.50;99.90;;;;;;5106814;28;20450;-85
2021/12/02 12:25:06;;;;;;;1.53;0.90;;;3.50;99.90;;;;;;5108345;28;20418;-87
2021/12/02 12:27:44;;;;;;;1.30;0.80;;;3.50;99.90;;;;;;5111465;28;20453;-88
2021/12/02 12:30:38;;;;;;;1.60;1.10;;;3.60;99.90;;;;;;5105722;28;20857;-86
2021/12/02 12:33:36;;;;;;;1.13;1.10;;;3.70;99.90;;;;;;5107368;28;20239;-88
2021/12/02 12:36:13;;;;;;;28.23;7.30;;;3.80;99.90;;;;;;5109890;28;20450;-87
2021/12/02 12:38:42;;;;;;;34.83;10.43;;;3.70;99.90;;;;;;5108090;28;20529;-86
2021/12/02 12:41:18;;;;;;;45.20;12.27;;;3.90;99.90;;;;;;5106758;28;20426;-86
2021/12/02 12:43:50;;;;;;;39.03;11.70;;;4.00;99.90;;;;;;5105672;28;20473;-86
2021/12/02 12:46:29;;;;;;;48.73;14.77;;;4.00;99.90;;;;;;5106517;28;20481;-87
2021/12/02 12:49:36;;;;;;;38.07;12.47;;;4.00;99.90;;;;;;5112384;28;20471;-86
2021/12/02 12:52:32;;;;;;;35.13;10.50;;;4.10;99.90;;;;;;5112722;28;20453;-86
2021/12/02 12:55:15;;;;;;;34.40;13.30;;;4.40;99.90;;;;;;5110197;28;20427;-83
2021/12/02 12:58:30;;;;;;;33.77;10.73;;;4.60;99.90;;;;;;5101620;28;20194;-85
2021/12/02 13:01:06;;;;;;;40.43;10.73;;;4.60;99.90;;;;;;5068912;28;20206;-83
2021/12/02 13:03:44;;;;;;;33.17;10.10;;;4.80;99.90;;;;;;5068528;28;20666;-84
2021/12/02 13:06:25;;;;;;;32.93;9.77;;;4.80;99.90;;;;;;5066605;28;20462;-82
2021/12/02 13:09:03;;;;;;;32.30;9.83;;;5.00;99.90;;;;;;5068241;28;20270;-81
2021/12/02 13:11:58;;;;;;;32.13;9.57;;;5.10;99.90;;;;;;5071756;28;20213;-83
2021/12/02 13:15:05;;;;;;;28.63;8.50;;;5.40;99.90;;;;;;5072303;28;20199;-84
2021/12/02 13:17:39;;;;;;;26.42;8.88;;;5.50;99.90;;;;;;5067578;28;20460;-82
2021/12/02 13:20:34;;;;;;;18.97;6.97;;;4.90;99.90;;;;;;5068885;28;20217;-81
2021/12/02 13:23:32;;;;;;;8.50;2.97;;;4.90;99.90;;;;;;5062801;28;20274;-80
2021/12/02 13:26:22;;;;;;;3.63;1.10;;;4.50;99.90;;;;;;5052892;28;20210;-80
2021/12/02 13:29:08;;;;;;;1.17;0.70;;;3.90;99.90;;;;;;5051797;28;20467;-81
2021/12/02 13:31:43;;;;;;;0.60;0.60;;;3.60;99.90;;;;;;5059079;28;20435;-82
2021/12/02 13:35:03;;;;;;;0.50;0.40;;;3.50;99.90;;;;;;5078888;28;20455;-85
2021/12/02 13:37:44;;;;;;;1.43;0.63;;;3.20;99.90;;;;;;5077544;28;20526;-84
2021/12/02 13:40:37;;;;;;;0.60;0.60;;;3.20;99.90;;;;;;5077051;28;20437;-85
2021/12/02 13:43:09;;;;;;;3.20;2.10;;;3.30;99.90;;;;;;5073381;28;20213;-84
2021/12/02 13:45:44;;;;;;;1.70;0.87;;;3.50;99.90;;;;;;5075569;28;20439;-85
2021/12/02 13:48:41;;;;;;;1.03;0.50;;;3.30;99.90;;;;;;5075999;28;20562;-84
2021/12/02 13:54:23;;;;;;;1.33;1.23;;;3.40;99.90;;;;;;5068419;28;21026;-81
2021/12/02 13:57:02;;;;;;;1.40;0.93;;;3.40;99.90;;;;;;5075667;28;20459;-81
2021/12/02 13:59:45;;;;;;;0.63;0.50;;;3.50;99.90;;;;;;5073895;28;20467;-82
2021/12/02 14:02:22;;;;;;;1.35;0.70;;;3.50;99.90;;;;;;5075478;28;20422;-82
2021/12/02 14:04:59;;;;;;;0.70;0.70;;;3.40;99.90;;;;;;5073886;28;20209;-82
2021/12/02 14:07:38;;;;;;;0.83;0.60;;;3.30;99.90;;;;;;5075465;28;20451;-82
2021/12/02 14:10:13;;;;;;;1.80;1.00;;;3.40;99.90;;;;;;5075395;28;20447;-82
2021/12/02 14:12:44;;;;;;;0.80;0.67;;;3.50;99.90;;;;;;5073411;28;20471;-81
2021/12/02 14:15:38;;;;;;;2.37;0.90;;;3.40;99.90;;;;;;5074464;28;20459;-81
2021/12/02 14:18:26;;;;;;;0.80;0.80;;;3.40;99.90;;;;;;5076322;28;20463;-81
2021/12/02 14:21:05;;;;;;;2.93;0.97;;;3.40;99.90;;;;;;5075317;28;20477;-82
2021/12/02 14:23:50;;;;;;;1.23;1.13;;;3.40;99.90;;;;;;5077821;28;20452;-82
2021/12/02 14:26:35;;;;;;;1.63;1.10;;;3.30;99.90;;;;;;5076764;28;20465;-81
2021/12/02 14:29:16;;;;;;;2.73;1.30;;;3.40;99.90;;;;;;5076920;28;20535;-82
2021/12/02 14:34:35;;;;;;;2.00;1.77;;;3.50;99.90;;;;;;5074898;28;20488;-82
2021/12/02 14:37:14;;;;;;;5.03;2.07;;;3.50;99.90;;;;;;5075101;28;20474;-82
2021/12/02 14:39:46;;;;;;;5.17;1.90;;;3.50;99.90;;;;;;5077182;28;20435;-82
2021/12/02 14:42:39;;;;;;;5.27;2.50;;;3.50;99.90;;;;;;5077686;28;20438;-82
2021/12/02 14:45:46;;;;;;;6.10;2.23;;;3.60;99.90;;;;;;5077233;28;20459;-82
2021/12/02 14:48:28;;;;;;;6.90;2.77;;;3.60;99.90;;;;;;5076889;28;20523;-81
2021/12/02 14:51:10;;;;;;;7.13;3.60;;;3.60;99.90;;;;;;5069609;28;20445;-79
2021/12/02 14:53:56;;;;;;;8.77;3.27;;;3.80;99.90;;;;;;5071362;28;20237;-81
2021/12/02 14:56:35;;;;;;;6.97;3.57;;;3.80;99.90;;;;;;5075210;28;20449;-81
2021/12/02 14:59:23;;;;;;;8.23;3.63;;;3.90;99.90;;;;;;5074726;28;20479;-80
2021/12/02 15:02:38;;;;;;;11.13;3.60;;;3.90;99.90;;;;;;5072150;28;20439;-79
2021/12/02 15:05:26;;;;;;;6.90;3.80;;;3.80;99.90;;;;;;5018544;28;20455;-85
2021/12/02 15:14:43;;;;;;;13.23;6.32;;;3.70;99.90;;;;;;5012252;28;20453;-81
2021/12/02 15:17:14;;;;;;;12.30;5.30;;;3.80;99.90;;;;;;5061481;28;20209;-81
2021/12/02 15:19:48;;;;;;;15.33;6.30;;;3.80;99.90;;;;;;5071058;28;20440;-80
2021/12/02 15:22:36;;;;;;;12.90;5.80;;;3.90;99.90;;;;;;5066758;28;20651;-81
2021/12/02 15:25:18;;;;;;;16.40;6.40;;;3.90;99.90;;;;;;5066876;28;20431;-80
2021/12/02 15:28:12;;;;;;;14.63;6.60;;;3.90;99.90;;;;;;5064601;28;20443;-81
2021/12/02 15:30:45;;;;;;;18.50;7.50;;;3.80;99.90;;;;;;5067112;28;20451;-81
2021/12/02 15:33:20;;;;;;;23.20;8.90;;;3.80;99.90;;;;;;5061925;28;20806;-80
2021/12/02 15:35:48;;;;;;;21.53;8.57;;;4.00;99.90;;;;;;5064314;28;20462;-81
2021/12/02 15:38:21;;;;;;;23.43;8.73;;;3.90;99.90;;;;;;5061068;28;20435;-79